createdAt,value
2023-01-05T00:01:57.041Z,541.28
2023-01-05T00:04:26.328Z,542.58
2023-01-05T00:06:54.658Z,541.47
2023-01-05T00:09:23.260Z,479.85
2023-01-05T00:11:51.461Z,467.08
2023-01-05T00:14:22.930Z,457.60
2023-01-05T00:16:51.394Z,454.00
2023-01-05T00:19:21.720Z,458.40
2023-01-05T00:21:50.055Z,492.52
2023-01-05T00:24:18.426Z,490.67
2023-01-05T00:26:46.566Z,481.60
2023-01-05T00:29:14.882Z,479.60
2023-01-05T00:31:43.307Z,474.38
2023-01-05T00:34:12.997Z,468.88
2023-01-05T00:36:42.588Z,463.83
2023-01-05T00:39:12.382Z,469.85
2023-01-05T00:41:40.746Z,434.90
2023-01-05T00:44:08.909Z,418.55
2023-01-05T00:46:39.903Z,407.23
2023-01-05T00:49:08.198Z,415.10
2023-01-05T00:51:36.323Z,408.25
2023-01-05T00:54:04.800Z,377.95
2023-01-05T00:56:33.730Z,380.95
2023-01-05T00:59:02.078Z,372.38
2023-01-05T01:01:30.814Z,308.85
2023-01-05T01:03:59.317Z,306.27
2023-01-05T01:06:28.674Z,282.42
2023-01-05T01:08:57.104Z,268.48
2023-01-05T01:11:25.476Z,256.27
2023-01-05T01:13:53.664Z,268.75
2023-01-05T01:16:22.078Z,254.85
2023-01-05T01:18:50.830Z,291.77
2023-01-05T01:21:19.181Z,287.70
2023-01-05T01:23:47.522Z,304.02
2023-01-05T01:26:15.697Z,248.07
2023-01-05T01:28:44.041Z,270.40
2023-01-05T01:31:12.396Z,272.15
2023-01-05T01:33:41.371Z,269.35
2023-01-05T01:36:11.301Z,261.80
2023-01-05T01:38:39.650Z,273.38
2023-01-05T01:41:07.978Z,279.20
2023-01-05T01:43:54.683Z,279.60
2023-01-05T01:46:26.877Z,277.10
2023-01-05T01:49:07.206Z,261.10
2023-01-05T01:51:45.497Z,255.30
2023-01-05T01:54:18.101Z,252.93
2023-01-05T01:56:51.065Z,219.40
2023-01-05T01:59:20.037Z,200.10
2023-01-05T02:01:52.076Z,236.88
2023-01-05T02:06:50.789Z,243.23
2023-01-05T02:09:19.058Z,247.63
2023-01-05T02:12:22.522Z,223.93
2023-01-05T02:15:03.057Z,237.63
2023-01-05T02:17:48.989Z,225.38
2023-01-05T02:20:43.177Z,205.27
2023-01-05T02:23:18.024Z,240.73
2023-01-05T02:26:27.945Z,238.43
2023-01-05T02:29:05.267Z,232.20
2023-01-05T02:31:46.837Z,219.82
2023-01-05T02:34:37.981Z,208.35
2023-01-05T02:37:13.466Z,226.10
2023-01-05T02:40:30.033Z,215.35
2023-01-05T02:43:01.520Z,227.57
2023-01-05T02:45:30.570Z,225.55
2023-01-05T02:48:01.098Z,236.03
2023-01-05T02:50:41.922Z,224.48
2023-01-05T02:53:34.351Z,232.00
2023-01-05T02:56:25.524Z,233.98
2023-01-05T02:59:22.894Z,238.40
2023-01-05T03:02:13.675Z,216.45
2023-01-05T03:04:55.771Z,198.38
2023-01-05T03:07:27.764Z,223.13
2023-01-05T03:09:57.417Z,188.75
2023-01-05T03:12:36.274Z,187.52
2023-01-05T03:15:41.627Z,182.93
2023-01-05T03:18:16.805Z,189.75
2023-01-05T03:20:51.948Z,182.15
2023-01-05T03:23:22.459Z,183.93
2023-01-05T03:25:52.274Z,171.80
2023-01-05T03:28:27.861Z,156.43
2023-01-05T03:31:31.593Z,159.23
2023-01-05T03:34:27.101Z,162.43
2023-01-05T03:37:36.696Z,165.95
2023-01-05T03:40:12.356Z,164.27
2023-01-05T03:42:41.668Z,134.13
2023-01-05T03:45:11.437Z,152.07
2023-01-05T03:47:39.723Z,138.93
2023-01-05T03:50:09.202Z,156.50
2023-01-05T03:52:38.347Z,134.80
2023-01-05T03:55:06.944Z,140.35
2023-01-05T03:57:35.223Z,132.30
2023-01-05T04:00:05.971Z,122.10
2023-01-05T04:02:46.263Z,131.60
2023-01-05T04:05:19.932Z,125.03
2023-01-05T04:07:49.427Z,127.90
2023-01-05T04:10:17.723Z,125.05
2023-01-05T04:12:45.992Z,112.13
2023-01-05T04:15:14.409Z,119.60
2023-01-05T04:17:42.955Z,116.88
2023-01-05T04:20:13.607Z,124.15
2023-01-05T04:22:42.503Z,114.85
2023-01-05T04:25:11.131Z,113.70
2023-01-05T04:27:43.007Z,128.65
2023-01-05T04:30:12.591Z,138.70
2023-01-05T04:32:41.096Z,132.40
2023-01-05T04:35:13.413Z,141.40
2023-01-05T04:37:43.038Z,156.05
2023-01-05T04:40:12.293Z,159.60
2023-01-05T04:42:49.058Z,161.95
2023-01-05T04:45:17.635Z,171.25
2023-01-05T04:47:46.675Z,157.38
2023-01-05T04:50:19.501Z,150.00
2023-01-05T04:52:47.708Z,157.13
2023-01-05T04:55:17.336Z,149.15
2023-01-05T04:57:46.333Z,151.48
2023-01-05T05:00:16.292Z,145.52
2023-01-05T05:02:45.193Z,138.38
2023-01-05T05:05:16.007Z,136.90
2023-01-05T05:07:44.423Z,139.20
2023-01-05T05:10:15.516Z,155.35
2023-01-05T05:12:43.699Z,134.52
2023-01-05T05:15:12.481Z,132.88
2023-01-05T05:17:45.905Z,137.85
2023-01-05T05:20:16.250Z,140.90
2023-01-05T05:22:45.192Z,130.77
2023-01-05T05:25:17.398Z,118.82
2023-01-05T05:27:48.838Z,105.53
2023-01-05T05:30:17.111Z,103.32
2023-01-05T05:32:45.287Z,107.72
2023-01-05T05:35:13.736Z,98.38
2023-01-05T05:37:45.011Z,100.43
2023-01-05T05:40:14.402Z,118.68
2023-01-05T05:42:42.679Z,109.13
2023-01-05T05:45:11.408Z,110.75
2023-01-05T05:47:39.748Z,119.47
2023-01-05T05:50:08.313Z,93.32
2023-01-05T05:52:36.562Z,99.90
2023-01-05T05:55:05.207Z,113.05
2023-01-05T05:57:33.440Z,99.68
2023-01-05T06:00:01.621Z,114.65
2023-01-05T06:02:40.965Z,113.50
2023-01-05T06:05:09.840Z,97.60
2023-01-05T06:07:37.952Z,90.55
2023-01-05T06:10:07.044Z,89.38
2023-01-05T06:12:35.620Z,84.20
2023-01-05T06:15:04.277Z,85.80
2023-01-05T06:17:32.573Z,96.43
2023-01-05T06:20:00.868Z,88.00
2023-01-05T06:22:29.103Z,88.95
2023-01-05T06:24:57.249Z,81.03
2023-01-05T06:27:25.574Z,83.03
2023-01-05T06:29:54.475Z,98.97
2023-01-05T06:32:22.680Z,86.45
2023-01-05T06:34:51.333Z,88.40
2023-01-05T06:37:19.593Z,104.78
2023-01-05T06:39:47.782Z,86.22
2023-01-05T06:42:20.192Z,81.78
2023-01-05T06:44:51.591Z,75.85
2023-01-05T06:47:20.369Z,75.88
2023-01-05T06:49:48.715Z,83.90
2023-01-05T06:52:17.145Z,77.55
2023-01-05T06:54:45.898Z,82.68
2023-01-05T06:57:14.192Z,67.13
2023-01-05T06:59:42.438Z,84.70
2023-01-05T07:02:17.979Z,104.35
2023-01-05T07:04:46.338Z,102.68
2023-01-05T07:07:15.308Z,95.35
2023-01-05T07:09:43.654Z,91.65
2023-01-05T07:12:11.831Z,104.72
2023-01-05T07:14:39.959Z,106.82
2023-01-05T07:17:09.229Z,100.53
2023-01-05T07:19:37.532Z,103.85
2023-01-05T07:22:05.817Z,82.90
2023-01-05T07:24:34.431Z,82.82
2023-01-05T07:27:09.305Z,79.60
2023-01-05T07:29:38.255Z,90.57
2023-01-05T07:32:06.700Z,87.78
2023-01-05T07:34:35.081Z,79.20
2023-01-05T07:37:03.435Z,78.85
2023-01-05T07:39:31.589Z,77.70
2023-01-05T07:41:59.937Z,86.90
2023-01-05T07:44:28.479Z,87.32
2023-01-05T07:46:56.713Z,76.68
2023-01-05T07:49:24.786Z,73.85
2023-01-05T07:51:53.313Z,67.97
2023-01-05T07:54:21.499Z,64.07
2023-01-05T07:56:50.020Z,79.40
2023-01-05T07:59:18.306Z,78.05
2023-01-05T08:01:46.809Z,73.53
2023-01-05T08:04:15.030Z,88.68
2023-01-05T08:06:43.410Z,72.22
2023-01-05T08:09:11.750Z,63.08
2023-01-05T08:11:40.075Z,93.25
2023-01-05T08:14:08.187Z,68.45
2023-01-05T08:16:36.526Z,88.65
2023-01-05T08:19:10.687Z,80.70
2023-01-05T08:21:39.446Z,83.47
2023-01-05T08:24:08.200Z,83.35
2023-01-05T08:26:36.523Z,81.53
2023-01-05T08:29:04.830Z,86.20
2023-01-05T08:31:33.565Z,81.10
2023-01-05T08:34:01.915Z,78.72
2023-01-05T08:36:33.283Z,81.97
2023-01-05T08:39:01.929Z,88.87
2023-01-05T08:41:33.951Z,87.85
2023-01-05T08:46:33.942Z,69.32
2023-01-05T08:49:05.191Z,81.35
2023-01-05T08:51:33.829Z,72.28
2023-01-05T08:54:02.160Z,70.57
2023-01-05T08:56:36.380Z,72.63
2023-01-05T09:06:25.618Z,74.68
2023-01-05T09:08:53.862Z,72.90
2023-01-05T09:11:23.785Z,85.53
2023-01-05T09:13:58.037Z,67.93
2023-01-05T09:16:57.285Z,59.00
2023-01-05T09:19:17.540Z,84.45
2023-01-05T09:21:45.800Z,80.38
2023-01-05T09:24:14.043Z,76.28
2023-01-05T09:26:43.443Z,59.03
2023-01-05T09:29:12.698Z,85.32
2023-01-05T09:31:44.399Z,82.35
2023-01-05T09:34:12.953Z,84.43
2023-01-05T09:36:41.315Z,72.47
2023-01-05T09:39:10.300Z,81.05
2023-01-05T09:41:46.944Z,71.47
2023-01-05T09:44:33.581Z,72.00
2023-01-05T09:47:29.456Z,66.95
2023-01-05T09:49:59.969Z,67.28
2023-01-05T09:52:32.844Z,65.40
2023-01-05T09:55:16.092Z,64.63
2023-01-05T09:57:55.124Z,72.30
2023-01-05T10:00:24.653Z,68.03
2023-01-05T10:03:12.941Z,63.85
2023-01-05T10:05:49.245Z,80.03
2023-01-05T10:08:22.564Z,87.68
2023-01-05T10:11:05.341Z,66.03
2023-01-05T10:13:35.378Z,63.35
2023-01-05T10:16:04.866Z,80.85
2023-01-05T10:18:33.429Z,82.20
2023-01-05T10:21:06.006Z,75.07
2023-01-05T10:23:50.411Z,73.93
2023-01-05T10:26:51.037Z,76.57
2023-01-05T10:29:35.427Z,79.07
2023-01-05T10:32:25.115Z,84.07
2023-01-05T10:35:02.058Z,87.28
2023-01-05T10:38:00.999Z,88.35
2023-01-05T10:41:07.483Z,78.10
2023-01-05T10:43:35.810Z,70.82
2023-01-05T10:48:54.290Z,79.32
2023-01-05T10:51:23.129Z,63.67
2023-01-05T10:53:51.501Z,88.40
2023-01-05T10:56:27.481Z,85.25
2023-01-05T10:59:22.221Z,74.78
2023-01-05T11:01:51.049Z,80.38
2023-01-05T11:04:33.269Z,77.80
2023-01-05T11:07:07.175Z,73.15
2023-01-05T11:09:41.129Z,63.78
2023-01-05T11:12:21.657Z,65.45
2023-01-05T11:14:58.500Z,84.20
2023-01-05T11:17:29.335Z,81.47
2023-01-05T11:19:59.035Z,69.78
2023-01-05T11:22:38.602Z,67.05
2023-01-05T11:25:29.194Z,76.50
2023-01-05T11:28:17.617Z,87.80
2023-01-05T11:31:06.594Z,70.32
2023-01-05T11:33:38.140Z,78.20
2023-01-05T11:36:07.126Z,81.75
2023-01-05T11:38:35.880Z,116.05
2023-01-05T11:41:04.231Z,83.65
2023-01-05T11:43:33.912Z,75.90
2023-01-05T11:46:05.458Z,66.15
2023-01-05T11:48:36.093Z,72.18
2023-01-05T11:51:04.534Z,80.00
2023-01-05T11:53:35.631Z,81.10
2023-01-05T11:56:05.666Z,67.33
2023-01-05T11:58:43.320Z,71.72
2023-01-05T12:01:32.813Z,74.50
2023-01-05T12:04:22.447Z,76.03
2023-01-05T12:07:05.330Z,80.03
2023-01-05T12:09:39.712Z,95.65
2023-01-05T12:12:27.528Z,76.50
2023-01-05T12:15:32.563Z,71.20
2023-01-05T12:18:39.881Z,72.63
2023-01-05T12:21:17.422Z,64.30
2023-01-05T12:23:57.989Z,72.68
2023-01-05T12:26:33.377Z,84.50
2023-01-05T12:33:44.503Z,77.03
2023-01-05T12:35:58.399Z,64.18
2023-01-05T12:38:38.182Z,94.45
2023-01-05T12:41:43.310Z,81.05
2023-01-05T12:44:33.266Z,80.03
2023-01-05T12:47:10.599Z,64.43
2023-01-05T12:49:42.101Z,82.38
2023-01-05T12:52:23.232Z,71.18
2023-01-05T12:55:00.285Z,91.95
2023-01-05T12:57:37.272Z,74.88
2023-01-05T13:00:16.637Z,80.20
2023-01-05T13:02:54.686Z,78.68
2023-01-05T13:05:46.548Z,59.92
2023-01-05T13:08:30.059Z,54.95
2023-01-05T13:11:27.989Z,81.05
2023-01-05T13:14:18.305Z,91.35
2023-01-05T13:17:26.164Z,51.30
2023-01-05T13:20:10.452Z,71.05
2023-01-05T13:22:41.438Z,69.95
2023-01-05T13:25:21.072Z,72.07
2023-01-05T13:27:49.514Z,67.20
2023-01-05T13:30:26.596Z,64.72
2023-01-05T13:33:23.927Z,58.92
2023-01-05T13:36:22.806Z,62.40
2023-01-05T13:39:13.955Z,79.18
2023-01-05T13:42:03.470Z,76.00
2023-01-05T13:45:10.884Z,73.55
2023-01-05T13:47:48.301Z,70.13
2023-01-05T13:50:43.967Z,89.75
2023-01-05T13:53:31.301Z,112.20
2023-01-05T13:56:05.562Z,62.55
2023-01-05T13:58:50.963Z,70.00
2023-01-05T14:01:39.915Z,64.20
2023-01-05T14:04:19.401Z,85.88
2023-01-05T14:06:49.830Z,82.45
2023-01-05T14:09:40.310Z,78.13
2023-01-05T14:12:08.671Z,71.07
2023-01-05T14:15:03.892Z,73.55
2023-01-05T14:17:54.137Z,97.07
2023-01-05T14:20:36.692Z,75.63
2023-01-05T14:23:24.830Z,99.55
2023-01-05T14:26:03.821Z,83.50
2023-01-05T14:28:32.088Z,79.60
2023-01-05T14:31:09.440Z,64.10
2023-01-05T14:34:03.571Z,64.85
2023-01-05T14:36:40.720Z,82.95
2023-01-05T14:39:21.210Z,70.88
2023-01-05T14:42:16.603Z,62.60
2023-01-05T14:44:50.239Z,62.72
2023-01-05T14:47:37.075Z,72.22
2023-01-05T14:50:06.833Z,74.95
2023-01-05T14:52:54.919Z,64.45
2023-01-05T14:55:39.645Z,70.22
2023-01-05T14:58:35.916Z,86.97
2023-01-05T15:01:19.135Z,82.75
2023-01-05T15:04:11.337Z,75.97
2023-01-05T15:09:29.733Z,93.93
2023-01-05T15:12:18.641Z,73.75
2023-01-05T15:15:14.587Z,78.45
2023-01-05T15:18:15.669Z,103.05
2023-01-05T15:21:37.450Z,60.03
2023-01-05T15:24:35.223Z,86.40
2023-01-05T15:27:26.577Z,71.90
2023-01-05T15:30:28.418Z,89.77
2023-01-05T15:33:15.779Z,70.60
2023-01-05T15:36:02.001Z,72.25
2023-01-05T15:38:31.892Z,62.08
2023-01-05T15:41:09.268Z,72.47
2023-01-05T15:43:40.438Z,89.00
2023-01-05T15:46:09.359Z,81.45
2023-01-05T15:51:02.223Z,72.93
2023-01-05T15:53:36.156Z,90.57
2023-01-05T15:56:06.488Z,124.10
2023-01-05T15:58:45.964Z,111.75
2023-01-05T16:01:16.309Z,77.30
2023-01-05T16:03:47.083Z,76.40
2023-01-05T16:06:26.379Z,66.85
2023-01-05T16:08:56.752Z,76.47
2023-01-05T16:11:36.060Z,72.25
2023-01-05T16:14:17.027Z,67.28
2023-01-05T16:16:53.776Z,66.03
2023-01-05T16:19:34.619Z,68.95
2023-01-05T16:22:14.807Z,76.55
2023-01-05T16:25:17.973Z,85.13
2023-01-05T16:27:52.700Z,76.32
2023-01-05T16:30:36.083Z,86.70
2023-01-05T16:33:12.498Z,71.40
2023-01-05T16:35:43.139Z,73.13
2023-01-05T16:38:11.432Z,76.07
2023-01-05T16:40:51.591Z,78.72
2023-01-05T16:43:35.188Z,79.60
2023-01-05T16:46:24.866Z,80.00
2023-01-05T16:48:58.573Z,86.72
2023-01-05T16:51:39.660Z,80.72
2023-01-05T16:54:24.524Z,88.60
2023-01-05T16:56:59.137Z,64.80
2023-01-05T16:59:39.933Z,73.68
2023-01-05T17:02:46.435Z,71.07
2023-01-05T17:05:20.261Z,76.85
2023-01-05T17:07:51.864Z,83.07
2023-01-05T17:10:25.989Z,78.80
2023-01-05T17:13:11.055Z,68.78
2023-01-05T17:16:04.994Z,81.20
2023-01-05T17:18:33.519Z,83.28
2023-01-05T17:21:03.753Z,80.30
2023-01-05T17:23:43.598Z,95.93
2023-01-05T17:26:13.728Z,88.35
2023-01-05T17:28:43.134Z,72.18
2023-01-05T17:31:11.554Z,78.57
2023-01-05T17:33:40.083Z,83.10
2023-01-05T17:36:08.683Z,95.65
2023-01-05T17:38:36.910Z,84.88
2023-01-05T17:41:05.601Z,81.20
2023-01-05T17:43:33.824Z,72.97
2023-01-05T17:46:03.065Z,83.47
2023-01-05T17:48:31.356Z,79.00
2023-01-05T17:50:59.549Z,70.15
2023-01-05T17:53:27.612Z,69.85
2023-01-05T17:55:56.000Z,82.57
2023-01-05T17:58:26.516Z,105.78
2023-01-05T18:00:56.179Z,109.57
2023-01-05T18:03:24.501Z,72.88
2023-01-05T18:05:53.911Z,74.18
2023-01-05T18:08:22.626Z,101.60
2023-01-05T18:10:50.873Z,98.10
2023-01-05T18:13:21.559Z,76.32
2023-01-05T18:18:19.214Z,80.53
2023-01-05T18:20:47.554Z,94.00
2023-01-05T18:23:15.584Z,78.65
2023-01-05T18:25:44.109Z,95.65
2023-01-05T18:28:12.657Z,126.20
2023-01-05T18:30:44.115Z,117.85
2023-01-05T18:35:46.114Z,106.90
2023-01-05T18:38:14.438Z,103.03
2023-01-05T18:40:48.009Z,83.68
2023-01-05T18:43:16.793Z,100.05
2023-01-05T18:45:45.233Z,112.00
2023-01-05T18:48:14.897Z,104.72
2023-01-05T18:50:43.967Z,97.70
2023-01-05T18:53:12.090Z,116.10
2023-01-05T18:55:43.893Z,83.05
2023-01-05T18:58:12.953Z,99.78
2023-01-05T19:00:46.230Z,122.38
2023-01-05T19:03:14.482Z,89.53
2023-01-05T19:05:44.599Z,99.57
2023-01-05T19:08:14.260Z,100.40
2023-01-05T19:10:43.223Z,99.28
2023-01-05T19:13:11.416Z,94.07
2023-01-05T19:15:39.800Z,107.43
2023-01-05T19:18:08.104Z,111.22
2023-01-05T19:20:36.287Z,100.45
2023-01-05T19:23:04.625Z,106.72
2023-01-05T19:25:33.039Z,101.35
2023-01-05T19:28:02.287Z,99.07
2023-01-05T19:30:31.648Z,98.43
2023-01-05T19:32:59.860Z,98.28
2023-01-05T19:35:28.095Z,118.53
2023-01-05T19:37:56.380Z,110.55
2023-01-05T19:40:24.553Z,104.10
2023-01-05T19:42:53.390Z,114.13
2023-01-05T19:45:22.294Z,77.00
2023-01-05T19:47:50.488Z,93.03
2023-01-05T19:50:18.996Z,115.15
2023-01-05T19:52:47.230Z,135.68
2023-01-05T19:55:15.364Z,137.85
2023-01-05T19:57:43.705Z,153.48
2023-01-05T20:00:12.737Z,261.58
2023-01-05T20:02:41.179Z,246.65
2023-01-05T20:05:10.055Z,158.43
2023-01-05T20:07:39.971Z,121.60
2023-01-05T20:10:08.804Z,98.68
2023-01-05T20:12:37.054Z,131.27
2023-01-05T20:15:05.758Z,187.02
2023-01-05T20:17:34.101Z,160.82
2023-01-05T20:20:02.425Z,181.80
2023-01-05T20:22:30.749Z,188.43
2023-01-05T20:24:59.082Z,223.13
2023-01-05T20:27:27.487Z,241.68
2023-01-05T20:29:56.096Z,210.90
2023-01-05T20:32:26.019Z,235.30
2023-01-05T20:34:57.785Z,172.48
2023-01-05T20:37:26.803Z,128.85
2023-01-05T20:40:00.442Z,163.25
2023-01-05T20:42:29.582Z,226.23
2023-01-05T20:44:57.866Z,260.05
2023-01-05T20:47:27.145Z,210.60
2023-01-05T20:49:55.569Z,210.90
2023-01-05T20:52:23.777Z,251.52
2023-01-05T20:54:52.126Z,216.75
2023-01-05T20:57:20.301Z,231.00
2023-01-05T20:59:48.617Z,215.25
2023-01-05T21:02:24.295Z,229.00
2023-01-05T21:04:53.628Z,228.77
2023-01-05T21:07:22.520Z,195.05
2023-01-05T21:09:51.843Z,201.82
2023-01-05T21:12:23.562Z,203.00
2023-01-05T21:14:52.098Z,206.30
2023-01-05T21:17:20.346Z,272.98
2023-01-05T21:19:48.860Z,197.65
2023-01-05T21:22:17.079Z,175.57
2023-01-05T21:24:45.513Z,205.00
2023-01-05T21:27:13.603Z,227.43
2023-01-05T21:29:42.119Z,184.75
2023-01-05T21:32:10.511Z,158.00
2023-01-05T21:34:38.844Z,137.52
2023-01-05T21:37:07.329Z,140.98
2023-01-05T21:39:35.723Z,173.35
2023-01-05T21:42:03.926Z,163.43
2023-01-05T21:44:32.744Z,154.60
2023-01-05T21:47:01.140Z,147.73
2023-01-05T21:49:29.588Z,202.88
2023-01-05T21:51:57.898Z,157.40
2023-01-05T21:54:26.278Z,183.25
2023-01-05T21:56:54.654Z,250.60
2023-01-05T21:59:23.129Z,294.33
2023-01-05T22:01:51.300Z,273.10
2023-01-05T22:04:19.759Z,326.70
2023-01-05T22:06:48.305Z,315.23
2023-01-05T22:09:16.594Z,316.27
2023-01-05T22:11:45.043Z,251.90
2023-01-05T22:14:14.166Z,214.25
2023-01-05T22:16:42.716Z,201.68
2023-01-05T22:19:11.114Z,218.77
2023-01-05T22:21:39.556Z,176.10
2023-01-05T22:24:08.315Z,172.25
2023-01-05T22:26:36.669Z,166.43
2023-01-05T22:29:05.114Z,162.25
2023-01-05T22:31:35.076Z,169.95
2023-01-05T22:34:04.192Z,128.55
2023-01-05T22:36:32.970Z,152.63
2023-01-05T22:39:01.260Z,163.15
2023-01-05T22:41:31.628Z,145.63
2023-01-05T22:44:00.265Z,148.45
2023-01-05T22:46:30.324Z,172.32
2023-01-05T22:48:59.533Z,190.30
2023-01-05T22:51:31.765Z,174.65
2023-01-05T22:54:01.005Z,188.82
2023-01-05T22:56:31.853Z,185.55
2023-01-05T22:59:01.066Z,196.60
2023-01-05T23:01:41.365Z,194.73
2023-01-05T23:04:09.690Z,161.50
2023-01-05T23:06:37.894Z,131.95
2023-01-05T23:09:08.431Z,125.97
2023-01-05T23:11:39.641Z,165.30
2023-01-05T23:14:09.904Z,164.27
2023-01-05T23:16:38.943Z,166.43
2023-01-05T23:19:08.584Z,157.90
2023-01-05T23:21:37.459Z,177.45
2023-01-05T23:24:06.205Z,227.13
2023-01-05T23:26:34.656Z,239.98
2023-01-05T23:29:02.880Z,236.70
2023-01-05T23:31:30.955Z,249.68
2023-01-05T23:33:59.306Z,223.85
2023-01-05T23:36:27.566Z,174.38
2023-01-05T23:38:56.744Z,179.20
2023-01-05T23:41:25.106Z,152.30
2023-01-05T23:43:53.224Z,155.10
2023-01-05T23:46:22.629Z,191.60
2023-01-05T23:48:52.953Z,179.35
2023-01-05T23:51:21.632Z,212.60
2023-01-05T23:53:52.915Z,204.10
2023-01-05T23:56:24.631Z,204.52
2023-01-05T23:59:05.422Z,295.40
